createdAt,value
2019-01-27T00:01:15.031Z,3.10
2019-01-27T00:03:44.370Z,3.10
2019-01-27T00:06:16.521Z,3.00
2019-01-27T00:08:45.626Z,3.10
2019-01-27T00:11:17.385Z,3.10
2019-01-27T00:13:46.383Z,3.10
2019-01-27T00:16:15.557Z,3.20
2019-01-27T00:18:47.656Z,3.20
2019-01-27T00:21:16.633Z,3.20
2019-01-27T00:23:45.876Z,3.10
2019-01-27T00:26:14.912Z,3.10
2019-01-27T00:28:43.988Z,3.20
2019-01-27T00:31:19.217Z,3.20
2019-01-27T00:33:54.589Z,3.20
2019-01-27T00:36:26.793Z,3.20
2019-01-27T00:38:55.935Z,3.30
2019-01-27T00:41:25.063Z,3.20
2019-01-27T00:43:54.180Z,3.20
2019-01-27T00:46:26.389Z,3.20
2019-01-27T00:48:58.197Z,3.20
2019-01-27T00:51:27.420Z,3.20
2019-01-27T00:53:56.475Z,3.20
2019-01-27T00:56:25.747Z,3.20
2019-01-27T00:58:59.783Z,3.10
2019-01-27T01:01:31.697Z,3.20
2019-01-27T01:04:05.389Z,3.10
2019-01-27T01:06:40.795Z,3.20
2019-01-27T01:09:11.660Z,3.10
2019-01-27T01:11:46.477Z,3.10
2019-01-27T01:14:18.177Z,3.20
2019-01-27T01:16:47.317Z,3.10
2019-01-27T01:19:16.734Z,3.10
2019-01-27T01:21:45.957Z,3.20
2019-01-27T01:24:20.412Z,3.00
2019-01-27T01:26:50.406Z,3.00
2019-01-27T01:29:19.580Z,3.00
2019-01-27T01:31:51.431Z,3.10
2019-01-27T01:34:20.792Z,3.00
2019-01-27T01:36:59.245Z,3.10
2019-01-27T01:39:28.524Z,3.00
2019-01-27T01:42:00.377Z,3.00
2019-01-27T01:44:35.845Z,3.10
2019-01-27T01:47:05.041Z,3.10
2019-01-27T01:49:34.041Z,3.10
2019-01-27T01:52:03.728Z,3.10
2019-01-27T01:54:32.557Z,3.10
2019-01-27T01:57:05.483Z,3.10
2019-01-27T01:59:37.360Z,3.10
2019-01-27T02:02:09.371Z,3.10
2019-01-27T02:04:42.489Z,3.20
2019-01-27T02:07:14.713Z,3.20
2019-01-27T02:09:46.715Z,3.10
2019-01-27T02:12:21.811Z,3.10
2019-01-27T02:14:54.416Z,3.10
2019-01-27T02:17:26.098Z,3.20
2019-01-27T02:19:56.368Z,3.10
2019-01-27T02:22:27.806Z,3.30
2019-01-27T02:24:57.168Z,3.30
2019-01-27T02:27:27.016Z,3.30
2019-01-27T02:29:57.306Z,3.20
2019-01-27T02:32:30.544Z,3.30
2019-01-27T02:35:02.505Z,3.20
2019-01-27T02:37:31.610Z,3.30
2019-01-27T02:40:01.693Z,3.30
2019-01-27T02:42:33.831Z,3.30
2019-01-27T02:45:05.918Z,3.40
2019-01-27T02:47:42.673Z,3.40
2019-01-27T02:50:09.590Z,3.50
2019-01-27T02:52:42.053Z,3.50
2019-01-27T02:55:11.458Z,3.50
2019-01-27T02:57:40.924Z,3.50
2019-01-27T03:00:20.205Z,3.50
2019-01-27T03:02:53.284Z,3.50
2019-01-27T03:05:53.263Z,3.40
2019-01-27T03:08:22.649Z,3.50
2019-01-27T03:10:55.867Z,3.50
2019-01-27T03:14:05.386Z,3.60
2019-01-27T03:16:35.200Z,3.50
2019-01-27T03:19:22.631Z,3.50
2019-01-27T03:21:55.677Z,3.50
2019-01-27T03:24:40.433Z,3.50
2019-01-27T03:27:18.893Z,3.50
2019-01-27T03:29:47.940Z,3.50
2019-01-27T03:32:17.058Z,3.50
2019-01-27T03:34:46.236Z,3.50
2019-01-27T03:37:18.349Z,3.40
2019-01-27T03:39:54.602Z,3.50
2019-01-27T03:42:22.182Z,3.50
2019-01-27T03:44:51.290Z,3.40
2019-01-27T03:47:21.696Z,3.40
2019-01-27T03:49:53.443Z,3.50
2019-01-27T03:52:25.584Z,3.50
2019-01-27T03:54:54.500Z,3.50
2019-01-27T03:57:23.488Z,3.50
2019-01-27T03:59:56.304Z,3.50
2019-01-27T04:02:25.273Z,3.50
2019-01-27T04:04:54.545Z,3.50
2019-01-27T04:07:23.405Z,3.50
2019-01-27T04:09:55.170Z,3.50
2019-01-27T04:12:27.778Z,3.60
2019-01-27T04:14:56.863Z,3.50
2019-01-27T04:17:25.977Z,3.50
2019-01-27T04:19:55.193Z,3.50
2019-01-27T04:22:27.235Z,3.50
2019-01-27T04:25:02.228Z,3.50
2019-01-27T04:27:31.246Z,3.50
2019-01-27T04:30:06.017Z,3.60
2019-01-27T04:32:35.276Z,3.60
2019-01-27T04:35:09.383Z,3.60
2019-01-27T04:37:42.378Z,3.70
2019-01-27T04:40:16.755Z,3.70
2019-01-27T04:42:45.875Z,3.60
2019-01-27T04:45:22.477Z,3.60
2019-01-27T04:47:51.577Z,3.60
2019-01-27T04:50:21.066Z,3.50
2019-01-27T04:52:52.988Z,3.60
2019-01-27T04:55:26.170Z,3.60
2019-01-27T04:57:55.440Z,3.70
2019-01-27T05:00:25.089Z,3.60
2019-01-27T05:03:02.921Z,3.60
2019-01-27T05:05:35.357Z,3.60
2019-01-27T05:08:04.758Z,3.60
2019-01-27T05:10:38.759Z,3.60
2019-01-27T05:13:07.939Z,3.60
2019-01-27T05:15:41.716Z,3.60
2019-01-27T05:18:16.848Z,3.60
2019-01-27T05:20:46.133Z,3.60
2019-01-27T05:23:15.119Z,3.60
2019-01-27T05:25:44.229Z,3.70
2019-01-27T05:28:13.335Z,3.60
2019-01-27T05:30:42.702Z,3.50
2019-01-27T05:33:11.848Z,3.60
2019-01-27T05:35:44.143Z,3.60
2019-01-27T05:38:13.345Z,3.50
2019-01-27T05:40:45.620Z,3.60
2019-01-27T05:43:14.712Z,3.60
2019-01-27T05:45:43.732Z,3.60
2019-01-27T05:48:12.542Z,3.60
2019-01-27T05:50:41.691Z,3.60
2019-01-27T05:53:13.606Z,3.60
2019-01-27T05:55:43.805Z,3.60
2019-01-27T05:58:18.668Z,3.50
2019-01-27T06:00:47.959Z,3.50
2019-01-27T06:03:17.180Z,3.60
2019-01-27T06:05:46.177Z,3.50
2019-01-27T06:08:20.563Z,3.50
2019-01-27T06:10:55.303Z,3.60
2019-01-27T06:13:24.393Z,3.60
2019-01-27T06:15:53.358Z,3.60
2019-01-27T06:18:25.434Z,3.60
2019-01-27T06:20:57.177Z,3.60
2019-01-27T06:23:26.000Z,3.50
2019-01-27T06:25:55.274Z,3.50
2019-01-27T06:28:24.356Z,3.50
2019-01-27T06:30:53.337Z,3.50
2019-01-27T06:33:30.221Z,3.50
2019-01-27T06:35:59.454Z,3.60
2019-01-27T06:38:28.383Z,3.70
2019-01-27T06:40:57.274Z,3.70
2019-01-27T06:43:27.258Z,3.60
2019-01-27T06:45:56.480Z,3.60
2019-01-27T06:48:31.440Z,3.70
2019-01-27T06:51:01.806Z,3.60
2019-01-27T06:53:34.513Z,3.70
2019-01-27T06:56:04.001Z,3.70
2019-01-27T06:58:53.685Z,3.70
2019-01-27T07:01:40.406Z,3.70
2019-01-27T07:04:14.961Z,3.70
2019-01-27T07:07:16.569Z,3.70
2019-01-27T07:10:16.554Z,3.70
2019-01-27T07:12:56.408Z,3.70
2019-01-27T07:15:50.808Z,3.80
2019-01-27T07:18:32.407Z,3.70
2019-01-27T07:21:21.447Z,3.70
2019-01-27T07:27:07.422Z,3.70
2019-01-27T07:30:43.346Z,3.70
2019-01-27T07:33:35.687Z,3.70
2019-01-27T07:39:59.652Z,3.60
2019-01-27T07:43:49.577Z,3.70
2019-01-27T07:46:33.269Z,3.70
2019-01-27T07:53:09.545Z,3.80
2019-01-27T07:56:03.368Z,3.80
2019-01-27T07:59:04.038Z,3.80
2019-01-27T08:02:09.710Z,3.90
2019-01-27T08:04:48.701Z,4.00
2019-01-27T08:07:39.491Z,4.00
2019-01-27T08:10:18.163Z,3.90
2019-01-27T08:13:18.563Z,4.00
2019-01-27T08:16:10.334Z,4.00
2019-01-27T08:19:13.372Z,4.10
2019-01-27T08:22:19.448Z,4.10
2019-01-27T08:25:07.508Z,4.00
2019-01-27T08:27:54.024Z,4.00
2019-01-27T08:30:32.643Z,4.10
2019-01-27T08:33:27.308Z,4.10
2019-01-27T08:36:08.997Z,4.20
2019-01-27T08:38:54.100Z,4.10
2019-01-27T08:41:48.041Z,4.20
2019-01-27T08:44:33.119Z,4.10
2019-01-27T08:47:03.786Z,4.20
2019-01-27T08:49:39.654Z,4.20
2019-01-27T08:52:08.948Z,4.20
2019-01-27T08:54:38.038Z,4.20
2019-01-27T08:57:08.625Z,4.20
2019-01-27T08:59:41.325Z,4.20
2019-01-27T09:02:27.676Z,4.20
2019-01-27T09:05:12.929Z,4.30
2019-01-27T09:08:03.924Z,4.30
2019-01-27T09:10:39.625Z,4.30
2019-01-27T09:13:30.968Z,4.30
2019-01-27T09:19:25.110Z,4.40
2019-01-27T09:22:39.842Z,4.30
2019-01-27T09:28:27.018Z,4.50
2019-01-27T09:31:20.706Z,4.60
2019-01-27T09:33:58.157Z,4.60
2019-01-27T09:36:58.302Z,4.70
2019-01-27T09:39:45.039Z,4.70
2019-01-27T09:42:34.727Z,4.80
2019-01-27T09:45:13.494Z,4.80
2019-01-27T09:47:53.708Z,4.90
2019-01-27T09:50:49.444Z,5.00
2019-01-27T09:53:23.752Z,5.00
2019-01-27T09:56:12.514Z,5.00
2019-01-27T09:58:48.227Z,5.00
2019-01-27T10:01:48.424Z,5.10
2019-01-27T10:04:43.616Z,5.10
2019-01-27T10:07:35.242Z,5.10
2019-01-27T10:10:14.800Z,5.00
2019-01-27T10:12:51.697Z,5.10
2019-01-27T10:15:35.197Z,5.20
2019-01-27T10:18:29.899Z,5.30
2019-01-27T10:21:11.432Z,5.40
2019-01-27T10:23:51.349Z,5.40
2019-01-27T10:26:38.098Z,5.60
2019-01-27T10:29:20.407Z,5.60
2019-01-27T10:32:26.588Z,5.60
2019-01-27T10:35:03.206Z,5.60
2019-01-27T10:37:51.873Z,5.60
2019-01-27T10:40:31.348Z,5.80
2019-01-27T10:43:06.855Z,5.70
2019-01-27T10:45:47.784Z,5.70
2019-01-27T10:48:35.425Z,5.70
2019-01-27T10:51:22.243Z,5.90
2019-01-27T10:54:16.859Z,5.90
2019-01-27T10:57:06.613Z,5.90
2019-01-27T11:00:04.328Z,5.80
2019-01-27T11:02:43.565Z,5.80
2019-01-27T11:05:40.188Z,5.90
2019-01-27T11:11:33.365Z,6.00
2019-01-27T11:14:17.160Z,6.10
2019-01-27T11:17:03.766Z,6.30
2019-01-27T11:19:55.090Z,6.20
2019-01-27T11:22:41.565Z,6.10
2019-01-27T11:25:21.045Z,6.20
2019-01-27T11:27:56.210Z,6.30
2019-01-27T11:33:43.654Z,6.30
2019-01-27T11:36:32.128Z,6.20
2019-01-27T11:39:20.101Z,6.10
2019-01-27T11:42:07.736Z,6.10
2019-01-27T11:45:11.452Z,5.90
2019-01-27T11:48:08.234Z,5.80
2019-01-27T11:50:45.129Z,5.70
2019-01-27T11:53:14.439Z,5.70
2019-01-27T11:55:43.430Z,5.60
2019-01-27T11:58:15.346Z,5.60
2019-01-27T12:05:49.967Z,5.80
2019-01-27T12:08:33.319Z,5.90
2019-01-27T12:11:15.494Z,5.90
2019-01-27T12:13:53.208Z,6.00
2019-01-27T12:16:49.801Z,5.90
2019-01-27T12:19:33.215Z,5.90
2019-01-27T12:35:56.888Z,5.80
2019-01-27T13:02:54.161Z,5.90
2019-01-27T13:08:35.968Z,5.70
2019-01-27T13:11:16.193Z,5.70
2019-01-27T13:13:50.345Z,5.70
2019-01-27T13:16:20.445Z,5.70
2019-01-27T13:19:05.393Z,5.60
2019-01-27T13:21:35.954Z,5.70
2019-01-27T13:24:12.240Z,5.70
2019-01-27T13:27:05.822Z,5.70
2019-01-27T13:29:42.061Z,5.70
2019-01-27T13:35:47.059Z,5.70
2019-01-27T13:38:18.817Z,5.60
2019-01-27T13:40:48.856Z,5.70
2019-01-27T13:43:27.409Z,5.70
2019-01-27T13:45:57.329Z,5.70
2019-01-27T13:48:30.696Z,5.70
2019-01-27T13:51:01.665Z,5.70
2019-01-27T13:53:35.626Z,5.70
2019-01-27T13:56:08.650Z,5.60
2019-01-27T13:58:39.944Z,5.60
2019-01-27T14:01:09.571Z,5.50
2019-01-27T14:03:42.589Z,5.50
2019-01-27T14:06:23.713Z,5.50
2019-01-27T14:08:56.257Z,5.50
2019-01-27T14:11:25.650Z,5.50
2019-01-27T14:13:54.571Z,5.60
2019-01-27T14:16:29.088Z,5.60
2019-01-27T14:19:00.897Z,5.70
2019-01-27T14:21:33.045Z,5.60
2019-01-27T14:24:02.136Z,5.70
2019-01-27T14:26:34.502Z,5.70
2019-01-27T14:29:03.558Z,5.70
2019-01-27T14:31:39.049Z,5.70
2019-01-27T14:34:08.306Z,5.70
2019-01-27T14:36:40.604Z,5.60
2019-01-27T14:39:27.235Z,5.60
2019-01-27T14:42:41.823Z,5.80
2019-01-27T14:48:57.064Z,5.80
2019-01-27T14:52:17.827Z,5.70
2019-01-27T14:59:31.107Z,5.60
2019-01-27T15:01:24.551Z,5.60
2019-01-27T15:04:01.059Z,5.50
2019-01-27T15:09:43.199Z,5.50
2019-01-27T15:13:13.076Z,5.60
2019-01-27T15:15:52.243Z,5.50
2019-01-27T15:16:04.786Z,5.50
2019-01-27T15:19:04.228Z,5.50
2019-01-27T15:21:48.762Z,5.40
2019-01-27T15:24:31.282Z,5.50
2019-01-27T15:27:19.378Z,5.50
2019-01-27T15:29:48.636Z,5.50
2019-01-27T15:32:18.145Z,5.60
2019-01-27T15:34:50.576Z,5.60
2019-01-27T15:37:37.611Z,5.50
2019-01-27T15:40:13.595Z,5.40
2019-01-27T15:42:47.321Z,5.50
2019-01-27T15:45:20.874Z,5.40
2019-01-27T15:48:10.411Z,5.50
2019-01-27T15:50:59.692Z,5.40
2019-01-27T16:05:08.263Z,5.30
2019-01-27T16:21:59.886Z,5.20
2019-01-27T16:24:38.151Z,5.10
2019-01-27T16:27:21.973Z,5.20
2019-01-27T16:29:56.392Z,5.10
2019-01-27T16:32:34.317Z,5.20
2019-01-27T16:35:07.140Z,5.10
2019-01-27T16:37:36.318Z,5.20
2019-01-27T16:40:31.891Z,5.20
2019-01-27T16:43:01.350Z,5.10
2019-01-27T16:45:31.000Z,5.10
2019-01-27T16:48:24.881Z,5.10
2019-01-27T16:50:55.769Z,5.10
2019-01-27T16:53:36.912Z,5.10
2019-01-27T16:56:06.842Z,5.20
2019-01-27T16:59:26.267Z,5.20
2019-01-27T17:02:12.506Z,5.10
2019-01-27T17:05:02.186Z,5.10
2019-01-27T17:08:08.020Z,5.10
2019-01-27T17:10:43.762Z,5.20
2019-01-27T17:13:19.328Z,5.20
2019-01-27T17:15:51.616Z,5.20
2019-01-27T17:18:24.041Z,5.20
2019-01-27T17:20:53.508Z,5.20
2019-01-27T17:23:40.990Z,5.30
2019-01-27T17:26:10.931Z,5.20
2019-01-27T17:28:46.363Z,5.20
2019-01-27T17:31:19.032Z,5.20
2019-01-27T17:34:08.504Z,5.20
2019-01-27T17:37:08.397Z,5.10
2019-01-27T17:40:05.221Z,5.10
2019-01-27T17:42:55.353Z,5.20
2019-01-27T17:45:44.195Z,5.10
2019-01-27T17:48:25.102Z,5.00
2019-01-27T17:51:18.817Z,5.00
2019-01-27T17:53:56.987Z,4.90
2019-01-27T17:56:27.496Z,4.90
2019-01-27T17:59:11.417Z,4.90
2019-01-27T18:01:57.392Z,4.80
2019-01-27T18:05:07.934Z,4.80
2019-01-27T18:07:53.522Z,4.70
2019-01-27T18:10:49.611Z,4.70
2019-01-27T18:13:56.390Z,4.60
2019-01-27T18:16:34.104Z,4.60
2019-01-27T18:19:03.613Z,4.60
2019-01-27T18:21:32.806Z,4.50
2019-01-27T18:24:05.794Z,4.50
2019-01-27T18:29:40.110Z,4.20
2019-01-27T18:32:11.611Z,4.10
2019-01-27T18:34:46.073Z,3.90
2019-01-27T18:37:15.817Z,3.80
2019-01-27T18:43:52.421Z,3.60
2019-01-27T18:46:45.629Z,3.50
2019-01-27T18:49:27.497Z,3.40
2019-01-27T18:52:00.826Z,3.30
2019-01-27T18:55:08.072Z,3.20
2019-01-27T18:57:49.904Z,3.20
2019-01-27T19:00:31.636Z,3.10
2019-01-27T19:03:28.802Z,3.10
2019-01-27T19:06:10.790Z,3.10
2019-01-27T19:08:52.910Z,3.00
2019-01-27T19:11:39.729Z,2.90
2019-01-27T19:14:16.688Z,2.90
2019-01-27T19:17:14.213Z,2.90
2019-01-27T19:19:56.985Z,2.90
2019-01-27T19:22:44.105Z,2.80
2019-01-27T19:25:29.397Z,2.80
2019-01-27T19:28:18.968Z,2.80
2019-01-27T19:31:03.039Z,2.80
2019-01-27T19:34:00.456Z,2.80
2019-01-27T19:36:54.822Z,2.90
2019-01-27T19:39:45.795Z,2.90
2019-01-27T19:42:35.296Z,2.90
2019-01-27T19:45:35.938Z,2.80
2019-01-27T19:48:24.400Z,2.90
2019-01-27T19:51:15.610Z,2.90
2019-01-27T19:54:11.809Z,2.90
2019-01-27T19:56:55.705Z,2.80
2019-01-27T19:59:44.655Z,2.80
2019-01-27T20:02:30.632Z,2.80
2019-01-27T20:05:28.451Z,2.80
2019-01-27T20:08:26.967Z,2.80
2019-01-27T20:11:24.648Z,2.70
2019-01-27T20:14:33.597Z,2.70
2019-01-27T20:17:22.690Z,2.60
2019-01-27T20:20:22.396Z,2.50
2019-01-27T20:26:54.510Z,2.30
2019-01-27T20:29:53.153Z,2.10
2019-01-27T20:33:13.480Z,2.00
2019-01-27T20:36:33.136Z,2.00
2019-01-27T20:39:24.073Z,1.90
2019-01-27T20:42:20.365Z,1.90
2019-01-27T20:45:28.349Z,1.90
2019-01-27T20:48:37.824Z,1.80
2019-01-27T20:51:38.561Z,1.80
2019-01-27T20:54:29.777Z,1.80
2019-01-27T20:57:14.519Z,1.90
2019-01-27T21:00:07.482Z,1.90
2019-01-27T21:03:05.185Z,2.00
2019-01-27T21:06:03.460Z,2.00
2019-01-27T21:08:51.716Z,2.00
2019-01-27T21:11:32.363Z,2.00
2019-01-27T21:14:22.993Z,2.00
2019-01-27T21:17:23.462Z,2.00
2019-01-27T21:19:56.753Z,2.00
2019-01-27T21:22:26.042Z,2.00
2019-01-27T21:25:00.956Z,2.00
2019-01-27T21:27:30.533Z,2.00
2019-01-27T21:29:59.883Z,2.00
2019-01-27T21:32:29.616Z,2.00
2019-01-27T21:34:59.341Z,2.00
2019-01-27T21:37:50.450Z,2.00
2019-01-27T21:40:23.731Z,2.10
2019-01-27T21:42:56.579Z,2.00
2019-01-27T21:45:26.466Z,2.10
2019-01-27T21:47:55.697Z,2.00
2019-01-27T21:50:27.891Z,2.10
2019-01-27T21:52:56.850Z,2.00
2019-01-27T21:55:29.097Z,1.90
2019-01-27T21:58:02.074Z,1.90
2019-01-27T22:00:36.992Z,1.90
2019-01-27T22:03:07.125Z,1.80
2019-01-27T22:05:36.170Z,1.80
2019-01-27T22:08:05.345Z,1.80
2019-01-27T22:10:34.425Z,1.70
2019-01-27T22:13:03.497Z,1.80
2019-01-27T22:15:32.508Z,1.70
2019-01-27T22:18:03.669Z,1.80
2019-01-27T22:21:15.101Z,1.70
2019-01-27T22:23:47.352Z,1.80
2019-01-27T22:26:19.682Z,1.70
2019-01-27T22:28:48.685Z,1.70
2019-01-27T22:31:19.379Z,1.60
2019-01-27T22:33:51.300Z,1.60
2019-01-27T22:36:23.424Z,1.70
2019-01-27T22:38:52.617Z,1.80
2019-01-27T22:41:22.873Z,1.70
2019-01-27T22:43:53.176Z,1.80
2019-01-27T22:46:28.578Z,1.80
2019-01-27T22:49:01.375Z,1.80
2019-01-27T22:51:31.058Z,1.80
2019-01-27T22:54:10.018Z,1.80
2019-01-27T22:56:42.622Z,1.80
2019-01-27T22:59:12.705Z,1.90
2019-01-27T23:01:52.985Z,1.90
2019-01-27T23:04:22.504Z,2.00
2019-01-27T23:06:51.696Z,1.90
2019-01-27T23:09:21.501Z,2.00
2019-01-27T23:11:57.274Z,2.00
2019-01-27T23:15:30.545Z,2.00
2019-01-27T23:17:23.606Z,2.00
2019-01-27T23:20:08.347Z,2.00
2019-01-27T23:22:59.686Z,2.00
2019-01-27T23:28:43.009Z,1.90
2019-01-27T23:31:15.193Z,1.90
2019-01-27T23:34:22.699Z,1.90
2019-01-27T23:36:56.632Z,1.80
2019-01-27T23:39:47.364Z,1.80
2019-01-27T23:42:40.780Z,1.70
2019-01-27T23:45:13.789Z,1.70
2019-01-27T23:51:02.648Z,1.70
2019-01-27T23:53:37.266Z,1.70
2019-01-27T23:56:07.076Z,1.70
2019-01-27T23:59:12.109Z,1.60
